Time;durP1;ratioP1;P1;durP2;ratioP2;P2;SDS_P1;SDS_P2;PMS_P1;PMS_P2;Temp;Humidity;BMP_temperature;BMP_pressure;BME280_temperature;BME280_humidity;BME280_pressure;Samples;Min_cycle;Max_cycle;Signal;HPM_P1;HPM_P2
2023/01/11 00:01:03;;;;;;;21.65;12.27;;;;;;;4.76;79.06;98926.47;4968177;28;20131;-68
2023/01/11 00:03:30;;;;;;;23.02;12.50;;;;;;;4.77;79.34;98928.13;4968705;28;20029;-68
2023/01/11 00:05:56;;;;;;;25.83;13.68;;;;;;;4.79;79.00;98925.16;4967042;28;20505;-68
2023/01/11 00:08:25;;;;;;;26.33;12.40;;;;;;;4.76;78.67;98927.28;4968247;28;20113;-68
2023/01/11 00:10:51;;;;;;;21.23;12.00;;;;;;;4.77;79.03;98922.69;4971341;28;20019;-68
2023/01/11 00:13:17;;;;;;;22.17;12.15;;;;;;;4.76;79.09;98918.31;4966047;28;20083;-68
2023/01/11 00:15:42;;;;;;;27.23;13.00;;;;;;;4.75;79.32;98922.91;4968606;28;20058;-68
2023/01/11 00:18:09;;;;;;;30.63;14.50;;;;;;;4.76;79.21;98921.84;4968215;28;20015;-68
2023/01/11 00:20:37;;;;;;;25.92;13.18;;;;;;;4.73;78.99;98924.25;4968459;28;20030;-68
2023/01/11 00:23:03;;;;;;;28.25;14.70;;;;;;;4.73;78.72;98922.34;4968089;28;20031;-69
2023/01/11 00:25:28;;;;;;;32.00;15.98;;;;;;;4.72;78.85;98917.16;4968564;28;20030;-69
2023/01/11 00:27:54;;;;;;;25.17;14.35;;;;;;;4.73;79.05;98921.53;4968631;28;20042;-67
2023/01/11 00:30:19;;;;;;;23.33;12.32;;;;;;;4.74;78.84;98925.91;4969550;28;20112;-69
2023/01/11 00:32:44;;;;;;;29.63;13.85;;;;;;;4.73;78.50;98922.34;4969326;28;20511;-67
2023/01/11 00:35:10;;;;;;;32.17;14.18;;;;;;;4.72;78.98;98925.31;4967909;28;20116;-68
2023/01/11 00:37:35;;;;;;;29.90;14.43;;;;;;;4.72;79.04;98931.56;4967592;28;20034;-67
2023/01/11 00:40:01;;;;;;;23.33;12.07;;;;;;;4.71;79.18;98919.03;4968586;28;20124;-67
2023/01/11 00:47:57;;;;;;;22.20;12.13;;;;;;;4.73;78.44;98922.34;4968181;28;20065;-68
2023/01/11 00:50:28;;;;;;;18.90;11.18;;;;;;;4.73;78.47;98925.06;4967977;28;20479;-68
2023/01/11 00:52:54;;;;;;;20.30;12.07;;;;;;;4.74;79.02;98928.63;4968394;28;20068;-67
2023/01/11 00:55:19;;;;;;;19.83;11.20;;;;;;;4.73;78.61;98922.34;4968187;28;20117;-67
2023/01/11 00:57:45;;;;;;;21.00;12.18;;;;;;;4.72;78.78;98923.41;4966890;28;20471;-66
2023/01/11 01:00:11;;;;;;;22.08;11.65;;;;;;;4.71;78.33;98920.94;4967582;28;20063;-67
2023/01/11 01:02:37;;;;;;;23.05;13.38;;;;;;;4.70;78.57;98917.41;4967609;28;20029;-67
2023/01/11 01:05:02;;;;;;;21.23;12.68;;;;;;;4.70;78.91;98924.75;4982623;28;20027;-67
2023/01/11 01:07:27;;;;;;;22.00;12.65;;;;;;;4.69;79.02;98923.91;4965253;28;20023;-68
2023/01/11 01:09:53;;;;;;;24.02;13.43;;;;;;;4.67;78.80;98920.63;4966156;28;20023;-66
2023/01/11 01:15:02;;;;;;;21.20;12.70;;;;;;;4.62;78.24;98918.63;4967599;28;20130;-65
2023/01/11 01:17:28;;;;;;;23.00;13.60;;;;;;;4.63;78.88;98919.47;4971292;28;20101;-67
2023/01/11 01:19:53;;;;;;;22.02;13.13;;;;;;;4.59;78.58;98924.56;4971423;28;20058;-66
2023/01/11 01:22:18;;;;;;;22.77;11.65;;;;;;;4.58;78.54;98927.53;4971724;28;20058;-66
2023/01/11 01:24:44;;;;;;;18.10;10.23;;;;;;;4.56;78.29;98926.94;4971019;28;20026;-65
2023/01/11 01:27:14;;;;;;;19.90;10.32;;;;;;;4.55;78.27;98922.59;4970587;28;20027;-66
2023/01/11 01:29:40;;;;;;;21.27;11.82;;;;;;;4.57;78.76;98923.16;4967926;28;20023;-65
2023/01/11 01:32:06;;;;;;;21.33;11.25;;;;;;;4.58;78.81;98928.34;4970114;28;20019;-65
2023/01/11 01:34:36;;;;;;;19.92;11.15;;;;;;;4.57;78.35;98923.16;4971184;28;20471;-65
2023/01/11 01:37:02;;;;;;;22.00;11.50;;;;;;;4.56;78.92;98919.59;4970817;28;20084;-66
2023/01/11 01:39:27;;;;;;;20.05;11.00;;;;;;;4.58;78.51;98922.09;4971141;28;20034;-66
2023/01/11 01:41:52;;;;;;;18.83;10.73;;;;;;;4.58;78.54;98924.81;4971575;28;20072;-66
2023/01/11 01:44:53;;;;;;;19.75;10.73;;;;;;;4.57;78.82;98923.97;4970853;28;20034;-65
2023/01/11 01:47:25;;;;;;;20.15;11.80;;;;;;;4.59;78.73;98923.75;4970869;28;20043;-66
2023/01/11 01:49:51;;;;;;;17.25;10.93;;;;;;;4.59;78.93;98904.72;4971564;28;20035;-65
2023/01/11 01:52:17;;;;;;;20.35;12.50;;;;;;;4.58;78.25;98905.81;4971269;28;20541;-65
2023/01/11 01:54:46;;;;;;;20.98;13.00;;;;;;;4.57;78.30;98910.41;4971342;28;20495;-66
2023/01/11 01:57:18;;;;;;;22.45;13.15;;;;;;;4.55;78.20;98901.66;4970341;28;20548;-66
2023/01/11 01:59:44;;;;;;;23.98;15.82;;;;;;;4.53;78.31;98906.50;4971212;28;20031;-66
2023/01/11 02:02:10;;;;;;;24.02;15.23;;;;;;;4.52;78.54;98909.50;4971498;28;20166;-66
2023/01/11 02:04:40;;;;;;;24.13;13.85;;;;;;;4.48;78.17;98917.31;4971332;28;20027;-65
2023/01/11 02:07:13;;;;;;;24.02;13.75;;;;;;;4.48;78.48;98909.16;4970683;28;20027;-65
2023/01/11 02:09:47;;;;;;;22.27;12.73;;;;;;;4.45;78.72;98902.31;4970102;28;20536;-66
2023/01/11 02:12:14;;;;;;;22.83;13.55;;;;;;;4.47;79.00;98900.19;4971413;28;20510;-66
2023/01/11 02:14:41;;;;;;;23.48;14.23;;;;;;;4.49;78.32;98902.63;4971653;28;20458;-66
2023/01/11 02:17:07;;;;;;;26.55;13.73;;;;;;;4.50;78.73;98898.03;4970723;28;20038;-66
2023/01/11 02:19:38;;;;;;;26.13;13.95;;;;;;;4.50;78.33;98898.03;4971417;28;20034;-66
2023/01/11 02:22:06;;;;;;;20.83;12.85;;;;;;;4.51;78.90;98892.34;4971160;28;20055;-66
2023/01/11 02:25:15;;;;;;;21.60;13.27;;;;;;;4.51;78.47;98886.91;4970717;28;20072;-65
2023/01/11 02:28:00;;;;;;;23.70;14.65;;;;;;;4.54;78.67;98888.34;4969877;28;20043;-66
2023/01/11 02:30:38;;;;;;;22.70;13.50;;;;;;;4.54;78.76;98891.06;4970980;28;20041;-65
2023/01/11 02:33:21;;;;;;;20.35;11.43;;;;;;;4.55;78.25;98879.13;4971129;28;20026;-65
2023/01/11 02:36:07;;;;;;;19.90;11.55;;;;;;;4.55;78.51;98888.09;4971012;28;20042;-66
2023/01/11 02:38:41;;;;;;;21.10;12.02;;;;;;;4.57;78.98;98890.56;4970425;28;20387;-67
2023/01/11 02:41:12;;;;;;;23.77;12.40;;;;;;;4.57;78.37;98894.09;4971211;28;20027;-66
2023/01/11 02:46:50;;;;;;;;;;;;;;;4.55;78.08;98895.41;4971146;28;20053;-66
2023/01/11 02:49:36;;;;;;;23.70;13.63;;;;;;;4.53;78.53;98900.28;4971010;28;19915;-65
2023/01/11 02:52:13;;;;;;;22.05;13.68;;;;;;;4.52;78.31;98898.63;4970539;28;20031;-65
2023/01/11 02:54:42;;;;;;;24.48;14.38;;;;;;;4.52;78.08;98904.06;4971077;28;20035;-65
2023/01/11 02:57:09;;;;;;;25.60;14.70;;;;;;;4.50;77.95;98900.75;4970411;28;20125;-66
2023/01/11 02:59:36;;;;;;;25.00;14.27;;;;;;;4.51;78.24;98897.78;4970175;28;20707;-65
2023/01/11 03:02:02;;;;;;;23.15;14.77;;;;;;;4.52;78.66;98896.72;4970545;28;20027;-65
2023/01/11 03:04:36;;;;;;;21.55;13.15;;;;;;;4.51;78.26;98895.06;4970548;28;20497;-66
2023/01/11 03:07:20;;;;;;;22.92;14.50;;;;;;;4.52;78.45;98882.34;4969923;28;20034;-66
2023/01/11 03:09:54;;;;;;;23.70;14.85;;;;;;;4.52;78.66;98883.13;4970256;28;20121;-65
2023/01/11 03:12:58;;;;;;;25.25;16.85;;;;;;;4.49;78.29;98880.91;4969910;28;20192;-66
2023/01/11 03:15:55;;;;;;;27.27;17.38;;;;;;;4.49;77.99;98880.91;4979343;28;20117;-66
2023/01/11 03:18:57;;;;;;;29.02;16.00;;;;;;;4.50;77.93;98890.72;4968983;28;20534;-66
2023/01/11 03:21:26;;;;;;;25.23;15.57;;;;;;;4.49;78.28;98883.63;4969415;28;20494;-66
2023/01/11 03:24:13;;;;;;;26.75;16.75;;;;;;;4.50;78.20;98887.19;4969615;28;20045;-66
2023/01/11 03:26:59;;;;;;;26.55;16.02;;;;;;;4.49;78.25;98889.06;4969308;28;20035;-66
2023/01/11 03:29:39;;;;;;;23.00;14.82;;;;;;;4.49;78.00;98882.81;4969816;28;20031;-66
2023/01/11 03:32:16;;;;;;;22.73;13.10;;;;;;;4.45;78.39;98883.31;4969590;28;20157;-65
2023/01/11 03:35:05;;;;;;;20.88;12.98;;;;;;;4.44;78.27;98884.38;4969413;28;20431;-65
2023/01/11 03:37:34;;;;;;;19.30;11.68;;;;;;;4.45;77.84;98874.34;4969138;28;20087;-66
2023/01/11 03:40:15;;;;;;;19.98;11.20;;;;;;;4.43;78.63;98874.59;4969940;28;20033;-66
2023/01/11 03:45:31;;;;;;;20.63;13.40;;;;;;;4.44;77.81;98876.22;4970019;28;20073;-64
2023/01/11 03:47:59;;;;;;;22.48;13.50;;;;;;;4.42;78.11;98872.13;4969613;28;20043;-66
2023/01/11 03:50:27;;;;;;;22.65;13.38;;;;;;;4.37;77.70;98872.84;4969308;28;20046;-65
2023/01/11 03:52:56;;;;;;;30.05;19.40;;;;;;;4.36;78.17;98871.19;4969812;28;20475;-66
2023/01/11 03:55:25;;;;;;;27.00;15.57;;;;;;;4.37;78.40;98858.47;4969332;28;20051;-66
2023/01/11 03:57:53;;;;;;;33.60;18.70;;;;;;;4.34;78.44;98862.47;4965496;28;20060;-65
2023/01/11 04:00:20;;;;;;;37.15;20.52;;;;;;;4.35;78.50;98858.69;5042951;28;20109;-65
2023/01/11 04:02:47;;;;;;;35.78;21.40;;;;;;;4.33;77.94;98866.25;5069615;28;20029;-66
2023/01/11 04:05:13;;;;;;;41.38;23.17;;;;;;;4.31;78.45;98857.53;5070857;28;20036;-66
2023/01/11 04:07:38;;;;;;;43.13;25.17;;;;;;;4.31;78.54;98871.09;5070356;28;20040;-65
2023/01/11 04:10:04;;;;;;;42.88;23.58;;;;;;;4.32;77.86;98870.03;5070449;28;20032;-66
2023/01/11 04:12:30;;;;;;;49.67;25.10;;;;;;;4.33;78.42;98866.25;5070677;28;20042;-66
2023/01/11 04:14:55;;;;;;;44.45;24.52;;;;;;;4.33;78.35;98866.25;5071195;28;20025;-66
2023/01/11 04:17:20;;;;;;;48.90;25.10;;;;;;;4.34;78.40;98867.91;5070335;28;20469;-65
2023/01/11 04:19:46;;;;;;;48.92;26.98;;;;;;;4.35;78.48;98866.81;5070161;28;20117;-65
2023/01/11 04:22:11;;;;;;;45.38;25.60;;;;;;;4.37;78.16;98861.97;5070679;28;20222;-65
2023/01/11 04:24:37;;;;;;;49.78;25.35;;;;;;;4.35;78.36;98861.41;5070385;28;20484;-65
2023/01/11 04:27:02;;;;;;;56.92;29.83;;;;;;;4.36;78.44;98859.53;5070420;28;20158;-65
2023/01/11 04:29:28;;;;;;;54.75;29.30;;;;;;;4.35;78.62;98860.59;5070871;28;20516;-66
2023/01/11 04:31:53;;;;;;;55.53;30.83;;;;;;;4.36;78.59;98856.81;5070440;28;20058;-66
2023/01/11 04:34:18;;;;;;;50.08;28.08;;;;;;;4.35;78.03;98845.09;5070805;28;20076;-66
2023/01/11 04:36:44;;;;;;;52.65;28.58;;;;;;;4.35;78.64;98841.59;5070265;28;20055;-66
2023/01/11 04:39:09;;;;;;;46.28;25.58;;;;;;;4.35;78.40;98836.16;5069961;28;20061;-65
2023/01/11 04:44:22;;;;;;;52.88;27.38;;;;;;;4.28;78.23;98831.69;5070797;28;20090;-66
2023/01/11 04:46:48;;;;;;;52.40;26.75;;;;;;;4.28;77.72;98836.31;5069717;28;20020;-66
2023/01/11 04:49:14;;;;;;;47.95;25.63;;;;;;;4.25;77.75;98834.09;5070303;28;20020;-66
2023/01/11 04:51:39;;;;;;;47.95;25.83;;;;;;;4.21;77.72;98831.03;5007906;28;20533;-66
2023/01/11 04:54:05;;;;;;;49.33;25.55;;;;;;;4.15;77.99;98837.44;4968651;28;20598;-66
2023/01/11 04:56:30;;;;;;;43.78;24.20;;;;;;;4.11;78.21;98828.97;4968283;28;20763;-65
2023/01/11 04:58:56;;;;;;;46.83;23.48;;;;;;;4.06;77.55;98828.88;4968567;28;20076;-65
2023/01/11 05:01:21;;;;;;;45.25;25.27;;;;;;;4.03;77.89;98840.22;4966632;28;20148;-65
2023/01/11 05:03:47;;;;;;;51.47;26.73;;;;;;;4.03;78.22;98834.78;4968418;28;20076;-66
2023/01/11 05:06:13;;;;;;;50.38;26.02;;;;;;;4.00;77.44;98835.28;4968145;28;20471;-66
2023/01/11 05:08:39;;;;;;;47.58;25.40;;;;;;;3.96;77.65;98824.09;4967978;28;20035;-66
2023/01/11 05:11:06;;;;;;;44.63;24.70;;;;;;;3.94;77.67;98819.97;4969114;28;20037;-66
2023/01/11 05:13:41;;;;;;;43.90;23.55;;;;;;;3.94;77.81;98828.09;4968545;28;20107;-65
2023/01/11 05:16:19;;;;;;;50.10;25.63;;;;;;;3.92;77.80;98820.22;4968451;28;20045;-66
2023/01/11 05:18:47;;;;;;;46.80;25.17;;;;;;;3.92;78.30;98817.50;4968877;28;20463;-66
2023/01/11 05:21:16;;;;;;;43.83;24.00;;;;;;;3.91;77.67;98818.56;4968088;28;20105;-65
2023/01/11 05:23:42;;;;;;;45.38;25.10;;;;;;;3.92;77.95;98812.06;4968643;28;20034;-66
2023/01/11 05:26:14;;;;;;;49.42;25.60;;;;;;;3.92;78.14;98816.66;5003976;28;20043;-66
2023/01/11 05:28:39;;;;;;;48.70;26.33;;;;;;;3.92;78.10;98812.06;5068300;28;20485;-65
2023/01/11 05:31:05;;;;;;;49.20;27.17;;;;;;;3.93;77.66;98812.88;5069512;28;20096;-65
2023/01/11 05:33:30;;;;;;;52.28;28.30;;;;;;;3.93;77.83;98810.16;5069597;28;20394;-65
2023/01/11 05:35:59;;;;;;;64.45;32.25;;;;;;;3.93;77.62;98804.75;5069556;28;20266;-65
2023/01/11 05:38:24;;;;;;;67.07;33.60;;;;;;;3.94;77.79;98801.81;5069403;28;20020;-65
2023/01/11 05:40:57;;;;;;;69.20;33.22;;;;;;;3.96;78.05;98801.53;5069773;28;20154;-66
2023/01/11 05:43:22;;;;;;;71.72;34.45;;;;;;;3.98;78.35;98811.09;5070315;28;20050;-66
2023/01/11 05:45:48;;;;;;;68.25;33.92;;;;;;;3.97;77.68;98808.63;5069779;28;20043;-66
2023/01/11 05:48:13;;;;;;;58.50;30.23;;;;;;;3.95;77.74;98808.03;5068975;28;20071;-65
2023/01/11 05:50:39;;;;;;;56.72;29.73;;;;;;;3.90;78.25;98803.34;5049026;28;20505;-66
2023/01/11 05:53:04;;;;;;;54.38;28.70;;;;;;;3.88;77.45;98806.28;4968128;28;20042;-65
2023/01/11 05:55:29;;;;;;;52.03;28.02;;;;;;;3.90;78.08;98810.66;4967917;28;20697;-66
2023/01/11 05:57:55;;;;;;;53.72;29.20;;;;;;;3.91;77.63;98804.16;4967340;28;20023;-65
2023/01/11 06:00:21;;;;;;;52.85;27.83;;;;;;;3.90;77.57;98797.94;4971186;28;20070;-66
2023/01/11 06:02:46;;;;;;;47.13;27.65;;;;;;;3.88;77.66;98800.88;4970546;28;20118;-65
2023/01/11 06:05:11;;;;;;;48.17;27.23;;;;;;;3.86;77.51;98807.63;4970976;28;20260;-65
2023/01/11 06:07:37;;;;;;;49.30;26.13;;;;;;;3.82;77.64;98803.75;4970767;28;20030;-66
2023/01/11 06:10:02;;;;;;;47.25;26.42;;;;;;;3.81;77.75;98802.09;4971070;28;20361;-66
2023/01/11 06:12:28;;;;;;;46.28;26.55;;;;;;;3.80;78.16;98800.44;4971094;28;20514;-65
2023/01/11 06:14:53;;;;;;;48.75;26.30;;;;;;;3.79;77.88;98806.94;4971519;28;20030;-65
2023/01/11 06:17:18;;;;;;;52.55;26.85;;;;;;;3.76;78.28;98802.84;4970365;28;20181;-66
2023/01/11 06:19:44;;;;;;;47.75;26.55;;;;;;;3.72;77.74;98802.47;4971096;28;20027;-65
2023/01/11 06:22:09;;;;;;;52.30;27.85;;;;;;;3.70;78.06;98796.47;4970434;28;20058;-65
2023/01/11 06:24:34;;;;;;;46.58;26.75;;;;;;;3.68;77.30;98801.31;4970789;28;20026;-65
2023/01/11 06:27:00;;;;;;;53.47;27.73;;;;;;;3.65;78.23;98790.97;4970653;28;20023;-66
2023/01/11 06:29:25;;;;;;;55.28;28.90;;;;;;;3.67;77.76;98790.72;4970995;28;20475;-66
2023/01/11 06:31:50;;;;;;;57.78;30.00;;;;;;;3.66;77.68;98792.63;4970637;28;20027;-66
2023/01/11 06:34:16;;;;;;;58.40;31.80;;;;;;;3.66;78.20;98792.63;4970818;28;20073;-65
2023/01/11 06:36:41;;;;;;;61.20;31.35;;;;;;;3.63;77.49;98789.56;4970176;28;20110;-65
2023/01/11 06:39:07;;;;;;;68.03;32.65;;;;;;;3.57;77.57;98803.03;4970478;28;20085;-66
2023/01/11 06:41:32;;;;;;;67.60;32.53;;;;;;;3.57;77.41;98796.78;4970540;28;20076;-65
2023/01/11 06:43:57;;;;;;;64.60;31.80;;;;;;;3.58;78.19;98790.28;5041544;28;20033;-66
2023/01/11 06:46:23;;;;;;;64.68;33.28;;;;;;;3.60;78.08;98792.75;5072008;28;20024;-66
2023/01/11 06:48:48;;;;;;;63.05;31.95;;;;;;;3.61;77.98;98807.97;5072240;28;20037;-66
2023/01/11 06:51:15;;;;;;;64.47;31.77;;;;;;;3.61;77.69;98799.81;5027183;28;20018;-65
2023/01/11 06:53:41;;;;;;;57.13;28.25;;;;;;;3.61;78.11;98794.41;4970210;28;20080;-66
2023/01/11 06:56:11;;;;;;;61.00;30.27;;;;;;;3.61;77.83;98799.81;4970423;28;20132;-66
2023/01/11 06:58:37;;;;;;;65.03;29.85;;;;;;;3.60;78.16;98796.31;4970019;28;20505;-66
2023/01/11 07:01:02;;;;;;;56.58;28.92;;;;;;;3.60;77.63;98801.72;4969567;28;20031;-65
2023/01/11 07:03:28;;;;;;;58.63;27.98;;;;;;;3.55;77.79;98805.16;4968994;28;20038;-65
2023/01/11 07:05:55;;;;;;;54.55;27.20;;;;;;;3.52;77.61;98805.63;4969193;28;20023;-65
2023/01/11 07:08:21;;;;;;;55.42;27.00;;;;;;;3.51;78.31;98803.97;4968360;28;20037;-66
2023/01/11 07:10:47;;;;;;;50.60;26.85;;;;;;;3.49;78.15;98808.00;4969675;28;20031;-65
2023/01/11 07:13:15;;;;;;;58.33;26.67;;;;;;;3.46;78.19;98798.47;4969096;28;20033;-65
2023/01/11 07:15:42;;;;;;;57.97;28.45;;;;;;;3.45;77.34;98801.41;4970238;28;20018;-66
2023/01/11 07:18:08;;;;;;;51.53;26.60;;;;;;;3.42;77.51;98792.69;4969463;28;20574;-65
2023/01/11 07:20:33;;;;;;;50.20;25.13;;;;;;;3.41;78.13;98788.34;4970863;28;20117;-65
2023/01/11 07:22:59;;;;;;;49.50;24.75;;;;;;;3.42;78.33;98779.13;4970418;28;20066;-66
2023/01/11 07:25:29;;;;;;;46.13;24.23;;;;;;;3.40;78.17;98783.97;4970742;28;20188;-66
2023/01/11 07:28:06;;;;;;;56.70;26.80;;;;;;;3.40;78.04;98770.44;4970453;28;20034;-66
2023/01/11 07:30:34;;;;;;;54.08;25.77;;;;;;;3.39;77.62;98768.78;4971381;28;20058;-67
2023/01/11 07:32:59;;;;;;;55.55;26.40;;;;;;;3.39;77.99;98767.97;4970784;28;20058;-66
2023/01/11 07:35:27;;;;;;;56.22;27.52;;;;;;;3.39;77.77;98776.09;4970139;28;20026;-65
2023/01/11 07:37:52;;;;;;;50.42;25.95;;;;;;;3.39;78.28;98767.97;5036216;28;20021;-65
2023/01/11 07:40:17;;;;;;;52.08;27.30;;;;;;;3.40;78.45;98772.31;5064897;28;20530;-65
2023/01/11 07:45:32;;;;;;;52.33;28.58;;;;;;;3.41;78.40;98769.34;4969857;28;20474;-65
2023/01/11 07:47:57;;;;;;;53.40;28.33;;;;;;;3.42;78.25;98764.78;4970007;28;20054;-65
2023/01/11 07:50:23;;;;;;;55.83;28.17;;;;;;;3.43;78.26;98766.41;4970015;28;20034;-65
2023/01/11 07:52:48;;;;;;;55.80;29.35;;;;;;;3.43;78.04;98766.41;4970130;28;20063;-65
2023/01/11 07:55:15;;;;;;;52.00;28.08;;;;;;;3.40;77.66;98764.19;4971686;28;20030;-65
2023/01/11 07:57:40;;;;;;;54.30;29.27;;;;;;;3.37;77.86;98765.47;4966389;28;20035;-66
2023/01/11 08:00:07;;;;;;;52.53;28.55;;;;;;;3.35;78.34;98764.91;5038107;28;20114;-65
2023/01/11 08:02:32;;;;;;;51.35;26.90;;;;;;;3.37;77.74;98756.53;5069500;28;20029;-65
2023/01/11 08:04:57;;;;;;;54.20;27.42;;;;;;;3.36;77.76;98746.75;5069161;28;20120;-65
2023/01/11 08:07:23;;;;;;;56.78;28.73;;;;;;;3.40;78.19;98756.06;5069329;28;20033;-66
2023/01/11 08:09:48;;;;;;;50.03;27.58;;;;;;;3.44;78.67;98754.50;5070533;28;20532;-65
2023/01/11 08:14:58;;;;;;;57.53;30.80;;;;;;;3.53;78.63;98747.63;5071823;28;20036;-66
2023/01/11 08:17:23;;;;;;;55.25;30.48;;;;;;;3.55;77.97;98753.63;5071097;28;20384;-66
2023/01/11 08:19:49;;;;;;;60.25;31.77;;;;;;;3.58;78.87;98752.31;5071218;28;20435;-66
2023/01/11 08:22:16;;;;;;;58.75;30.75;;;;;;;3.60;77.95;98749.34;5071332;28;20031;-65
2023/01/11 08:24:41;;;;;;;59.72;30.42;;;;;;;3.62;78.58;98749.94;5071352;28;20028;-66
2023/01/11 08:27:07;;;;;;;55.83;29.73;;;;;;;3.65;78.73;98750.28;5071442;28;20059;-66
2023/01/11 08:29:32;;;;;;;57.53;30.00;;;;;;;3.68;78.15;98754.41;5071331;28;20378;-65
2023/01/11 08:31:58;;;;;;;60.10;30.60;;;;;;;3.70;78.14;98744.94;5070784;28;20024;-65
2023/01/11 08:34:24;;;;;;;65.45;30.95;;;;;;;3.72;78.04;98745.50;5071106;28;20028;-65
2023/01/11 08:36:49;;;;;;;72.07;33.10;;;;;;;3.76;78.79;98750.44;5070949;28;20020;-65
2023/01/11 08:39:15;;;;;;;67.03;32.35;;;;;;;3.81;78.61;98762.25;5071220;28;20366;-66
2023/01/11 08:41:40;;;;;;;74.22;36.10;;;;;;;3.85;78.48;98767.97;5071412;28;20052;-65
2023/01/11 08:44:06;;;;;;;70.35;34.88;;;;;;;3.87;78.19;98769.38;5071266;28;20017;-65
2023/01/11 08:46:33;;;;;;;74.85;36.15;;;;;;;3.92;78.26;98773.25;5070696;28;20031;-66
2023/01/11 08:49:01;;;;;;;70.80;35.28;;;;;;;3.95;79.08;98765.47;5071409;28;20024;-66
2023/01/11 08:51:27;;;;;;;62.72;32.80;;;;;;;3.98;78.06;98766.84;5017021;28;20030;-66
2023/01/11 08:53:52;;;;;;;66.43;32.72;;;;;;;4.01;78.86;98772.63;4969502;28;20029;-65
2023/01/11 08:56:18;;;;;;;70.15;33.72;;;;;;;4.04;78.36;98774.00;4968956;28;20045;-65
2023/01/11 08:58:43;;;;;;;63.47;31.75;;;;;;;4.05;78.48;98767.50;4969400;28;20053;-65
2023/01/11 09:01:08;;;;;;;73.10;36.03;;;;;;;4.06;78.50;98766.44;4969752;28;20471;-66
2023/01/11 09:03:34;;;;;;;69.47;36.70;;;;;;;4.07;78.19;98770.00;4969347;28;20062;-65
2023/01/11 09:06:00;;;;;;;68.68;35.38;;;;;;;4.09;78.28;98776.81;4969354;28;20379;-66
2023/01/11 09:08:26;;;;;;;63.45;32.55;;;;;;;4.08;78.68;98777.03;4968951;28;20023;-65
2023/01/11 09:10:52;;;;;;;77.30;34.92;;;;;;;4.11;78.37;98777.41;4969605;28;20113;-65
2023/01/11 09:13:18;;;;;;;65.40;33.05;;;;;;;4.13;78.97;98779.84;4969571;28;20106;-65
2023/01/11 09:15:45;;;;;;;66.35;35.90;;;;;;;4.13;79.01;98767.13;4968085;28;20106;-67
2023/01/11 09:18:11;;;;;;;63.15;33.85;;;;;;;4.15;78.76;98767.69;4961887;28;20543;-66
2023/01/11 09:20:37;;;;;;;65.28;31.95;;;;;;;4.16;78.55;98763.91;4968027;28;20034;-66
2023/01/11 09:23:02;;;;;;;61.45;30.63;;;;;;;4.19;78.98;98764.47;4968440;28;20031;-66
2023/01/11 09:25:28;;;;;;;59.08;29.55;;;;;;;4.23;78.55;98757.50;4963811;28;20031;-67
2023/01/11 09:27:54;;;;;;;57.47;28.52;;;;;;;4.27;78.52;98766.78;4966276;28;20023;-67
2023/01/11 09:30:21;;;;;;;59.40;28.05;;;;;;;4.29;78.78;98757.31;4966333;28;20041;-68
2023/01/11 09:32:48;;;;;;;60.65;30.02;;;;;;;4.31;78.70;98762.47;4958703;28;20050;-66
2023/01/11 09:35:16;;;;;;;60.97;32.15;;;;;;;4.30;79.17;98750.81;4968242;28;20038;-66
2023/01/11 09:37:54;;;;;;;54.88;29.80;;;;;;;4.32;78.95;98755.97;4968975;28;20490;-66
2023/01/11 09:40:25;;;;;;;53.40;27.98;;;;;;;4.35;78.59;98741.09;4968270;28;20031;-66
2023/01/11 09:42:53;;;;;;;51.35;27.98;;;;;;;4.38;79.39;98732.47;4969012;28;20023;-65
2023/01/11 09:45:23;;;;;;;48.15;25.77;;;;;;;4.37;79.03;98726.19;4968749;28;20465;-65
2023/01/11 09:48:02;;;;;;;50.03;26.58;;;;;;;4.38;79.01;98719.69;4969443;28;20058;-65
2023/01/11 09:50:31;;;;;;;44.28;22.90;;;;;;;4.44;78.97;98712.47;4982362;28;20036;-65
2023/01/11 09:53:02;;;;;;;39.75;21.88;;;;;;;4.48;79.20;98710.91;4969937;28;20031;-64
2023/01/11 09:55:36;;;;;;;40.42;20.65;;;;;;;4.52;78.94;98706.56;4969375;28;20065;-64
2023/01/11 09:58:27;;;;;;;36.65;19.65;;;;;;;4.54;78.91;98701.72;4969070;28;20126;-64
2023/01/11 10:01:13;;;;;;;34.88;18.70;;;;;;;4.55;78.94;98697.94;4991246;28;20564;-65
2023/01/11 10:04:15;;;;;;;28.50;17.25;;;;;;;4.55;78.69;98695.22;4966313;28;20042;-66
2023/01/11 10:06:57;;;;;;;32.55;17.63;;;;;;;4.59;79.07;98696.38;4966940;28;20051;-65
2023/01/11 10:09:50;;;;;;;30.23;16.67;;;;;;;4.61;78.36;98694.22;4969220;28;20035;-65
2023/01/11 10:12:49;;;;;;;27.88;17.05;;;;;;;4.62;78.42;98695.06;4969940;28;20035;-65
2023/01/11 10:15:30;;;;;;;29.50;15.00;;;;;;;4.65;78.58;98699.97;4969042;28;20122;-66
2023/01/11 10:18:16;;;;;;;28.98;15.90;;;;;;;4.64;78.36;98692.06;4968858;28;20042;-65
2023/01/11 10:20:46;;;;;;;25.35;14.20;;;;;;;4.65;78.55;98693.72;4994406;28;20028;-65
2023/01/11 10:23:30;;;;;;;26.42;15.93;;;;;;;4.64;77.68;98678.50;5071756;28;20020;-65
2023/01/11 10:26:01;;;;;;;27.35;16.00;;;;;;;4.67;78.35;98675.28;4969333;28;20042;-65
2023/01/11 10:28:38;;;;;;;24.08;15.50;;;;;;;4.72;77.84;98675.34;4969322;28;20033;-64
2023/01/11 10:31:28;;;;;;;23.58;14.50;;;;;;;4.73;77.53;98675.06;4968363;28;20031;-66
2023/01/11 10:42:14;;;;;;;26.20;14.98;;;;;;;4.88;77.39;98670.91;4980357;28;20657;-65
2023/01/11 10:44:59;;;;;;;23.42;12.90;;;;;;;4.94;77.38;98666.34;4970262;28;20038;-66
2023/01/11 10:47:46;;;;;;;20.42;11.85;;;;;;;5.01;77.41;98665.09;4969499;28;20114;-66
2023/01/11 10:50:26;;;;;;;22.92;12.27;;;;;;;5.05;77.49;98658.06;4969993;28;20043;-66
2023/01/11 10:53:04;;;;;;;20.77;11.93;;;;;;;5.11;77.04;98656.22;4973638;28;20023;-66
2023/01/11 10:55:36;;;;;;;23.95;12.90;;;;;;;5.19;77.27;98660.38;4966737;28;20047;-65
2023/01/11 10:58:24;;;;;;;15.90;8.65;;;;;;;5.18;76.93;98659.56;4966667;28;20043;-67
2023/01/11 11:01:07;;;;;;;16.77;9.90;;;;;;;5.19;76.33;98660.38;4966174;28;20031;-65
2023/01/11 11:04:01;;;;;;;15.20;7.93;;;;;;;5.19;76.12;98654.94;4965682;28;20063;-64
2023/01/11 11:06:40;;;;;;;17.17;9.40;;;;;;;5.20;75.84;98651.97;5069018;28;20121;-65
2023/01/11 11:09:18;;;;;;;18.92;10.68;;;;;;;5.22;76.05;98644.38;5069775;28;20063;-65
2023/01/11 11:11:59;;;;;;;19.20;10.25;;;;;;;5.27;75.65;98640.88;5070626;28;20020;-66
2023/01/11 11:14:42;;;;;;;18.23;9.98;;;;;;;5.27;74.99;98638.16;5001982;28;20071;-65
2023/01/11 11:17:26;;;;;;;20.08;11.52;;;;;;;5.26;75.37;98633.00;4974660;28;20228;-65
2023/01/11 11:19:52;;;;;;;20.20;9.52;;;;;;;5.30;74.50;98634.94;4968986;28;20083;-66
2023/01/11 11:22:19;;;;;;;15.13;8.82;;;;;;;5.29;74.31;98629.75;4970613;28;20030;-66
2023/01/11 11:24:49;;;;;;;19.83;9.30;;;;;;;5.28;74.14;98631.66;4969767;28;20030;-66
2023/01/11 11:27:27;;;;;;;13.20;7.63;;;;;;;5.28;74.58;98618.06;4969275;28;20049;-66
2023/01/11 11:29:54;;;;;;;15.30;7.68;;;;;;;5.29;73.81;98611.53;4967338;28;20485;-66
2023/01/11 11:32:25;;;;;;;13.55;7.53;;;;;;;5.28;73.60;98611.81;4969250;28;20023;-66
2023/01/11 11:34:51;;;;;;;15.05;7.78;;;;;;;5.31;73.93;98603.94;4969632;28;20034;-67
2023/01/11 11:37:43;;;;;;;22.80;10.13;;;;;;;5.36;74.31;98600.44;4968349;28;20050;-67
2023/01/11 11:40:31;;;;;;;14.05;6.90;;;;;;;5.42;73.22;98593.16;4968122;28;20067;-66
2023/01/11 11:43:26;;;;;;;10.98;5.60;;;;;;;5.44;72.77;98588.28;4972764;28;20038;-67
2023/01/11 11:46:17;;;;;;;8.82;5.15;;;;;;;5.44;72.78;98577.41;4969597;28;20026;-67
2023/01/11 11:48:44;;;;;;;9.77;5.15;;;;;;;5.44;72.98;98564.59;4969001;28;20028;-65
2023/01/11 11:51:19;;;;;;;12.07;5.90;;;;;;;5.49;71.65;98559.22;4968964;28;20031;-65
2023/01/11 11:53:54;;;;;;;9.73;5.55;;;;;;;5.51;72.15;98550.78;4966158;28;20502;-65
2023/01/11 11:56:24;;;;;;;9.68;5.88;;;;;;;5.58;72.22;98558.72;4996349;28;20048;-66
2023/01/11 11:58:51;;;;;;;13.52;8.05;;;;;;;5.62;70.95;98551.69;4972711;28;20491;-65
2023/01/11 12:01:27;;;;;;;16.92;7.68;;;;;;;5.63;72.02;98551.41;4962926;28;20041;-66
2023/01/11 12:03:58;;;;;;;13.80;6.78;;;;;;;5.66;71.51;98556.34;4966380;28;20063;-67
2023/01/11 12:06:26;;;;;;;10.55;5.85;;;;;;;5.73;72.07;98549.84;4968284;28;20033;-67
2023/01/11 12:08:53;;;;;;;14.40;7.65;;;;;;;5.81;71.71;98538.47;4968431;28;20034;-68
2023/01/11 12:11:28;;;;;;;10.15;4.97;;;;;;;5.87;70.52;98551.03;4968677;28;20035;-66